KEBG

Details ICAO KEBG
Name EDINBURG INTL
Region United States
Timezone America/Chicago (UTC-6.0)
Plans Departing 10
Arriving 20
Stats Elevation 75 ft / 23 m (AMSL)
Location 26.442017° -98.127635°
Runways 2
Magnetic Variation 4.073° E
Sunrise 2017-12-13 13:13:17 UTC / 2017-12-13 07:13:17 Local
Sunset 2017-12-13 23:43:13 UTC / 2017-12-13 17:43:13 Local
Advertisement - Login to hide

Runways

ID Width Length Bearing (true) Bearing (mag) Surface Threshold Offset Overrun Length
13 150 ft / 46 m 3,117 ft / 950 m 144.39° 140.32° Asphalt 0 ft / 0 m 0 ft / 0 m
14 75 ft / 23 m 5,010 ft / 1,527 m 144.02° 139.95° Asphalt 0 ft / 0 m 0 ft / 0 m
31 150 ft / 46 m 3,117 ft / 950 m 324.39° 320.32° Asphalt 0 ft / 0 m 1,800 ft / 549 m
32 75 ft / 23 m 5,010 ft / 1,527 m 324.03° 319.96° Asphalt 0 ft / 0 m 0 ft / 0 m

Map

Weather


0- 5 10 15 20 25 30 35+ Temperature / ° C

Clouds and Precipitation
Forecast for 2017-12-14 00:00 UTC. Updated an hour ago

Ground ~20,000 ft ~40,000 ft Winds

METAR

KEBG 132035Z AUTO 00000KT 10SM CLR 19/02 A3009 RMK AO2 T01940016

TAF

Not found

Frequencies

Recorded 118.02 MHz AWOS 3
Approach 121.00 MHz CORPUS APP DEP
Unicom 122.80 MHz CTAF/UNICOM
Warning: Do not use this data for real-world aviation or navigation. No guarantee of current accuracy is given.